Grassy Point, New York
Current Conditions -  °F | °C
As of 4:45 AM on Wednesday 22 Oct 2014 (Local Time) from KSWF Reporting Station
Overcast Overcast  
Wind Chill: 52°   Ceiling: 700
Heat Index: 52°   Visibility: 7mi
Dew Point: 50°   Wind: 6mph
Humidity: 94%   Direction: NA
Pressure: 29.95"   Gusts: NA
Location:  41.2394°N, 74.039°W
Report Text: KSWF 220845Z VRB05KT 7SM OVC007 11/10 A2995
Loading
Personal Weather Stations






























Interactive Weather Map
Tropical Storm Tracking
New forecast layout! Learn more

10-Day Weather Forecast

Advertisements
Track Severe Weather on mobile